createdAt,value
2023-03-03T00:00:49.814Z,101025.72
2023-03-03T00:03:26.908Z,101026.81
2023-03-03T00:05:58.678Z,101019.19
2023-03-03T00:08:30.335Z,101024.75
2023-03-03T00:11:02.536Z,101019.75
2023-03-03T00:13:34.129Z,101019.63
2023-03-03T00:16:30.419Z,101019.50
2023-03-03T00:19:02.798Z,101009.78
2023-03-03T00:21:45.176Z,101011.47
2023-03-03T00:24:40.689Z,101008.25
2023-03-03T00:27:31.611Z,101010.63
2023-03-03T00:30:03.635Z,101006.97
2023-03-03T00:32:52.362Z,100998.84
2023-03-03T00:35:37.228Z,100988.63
2023-03-03T00:38:21.167Z,100988.94
2023-03-03T00:40:52.826Z,100981.50
2023-03-03T00:43:26.597Z,100971.34
2023-03-03T00:45:59.016Z,100983.66
2023-03-03T00:48:49.115Z,100983.50
2023-03-03T00:51:26.494Z,100982.94
2023-03-03T00:53:58.399Z,100970.88
2023-03-03T00:56:29.871Z,100965.00
2023-03-03T00:59:00.762Z,100961.84
2023-03-03T01:01:33.098Z,100962.03
2023-03-03T01:04:04.383Z,100957.63
2023-03-03T01:06:35.660Z,100963.06
2023-03-03T01:09:06.280Z,100966.69
2023-03-03T01:11:38.238Z,100952.38
2023-03-03T01:14:10.132Z,100954.28
2023-03-03T01:16:43.057Z,100949.97
2023-03-03T01:19:14.193Z,100944.31
2023-03-03T01:21:45.586Z,100946.00
2023-03-03T01:24:16.782Z,100935.50
2023-03-03T01:26:47.912Z,100933.31
2023-03-03T01:29:19.351Z,100933.22
2023-03-03T01:31:49.887Z,100938.97
2023-03-03T01:34:22.310Z,100931.72
2023-03-03T01:36:53.388Z,100923.56
2023-03-03T01:39:24.449Z,100922.66
2023-03-03T01:41:55.726Z,100909.53
2023-03-03T01:44:26.252Z,100906.66
2023-03-03T01:47:10.075Z,100904.47
2023-03-03T01:49:46.712Z,100893.94
2023-03-03T01:52:35.956Z,100891.78
2023-03-03T01:55:24.663Z,100893.06
2023-03-03T01:58:02.205Z,100887.56
2023-03-03T02:00:34.814Z,100896.22
2023-03-03T02:03:06.898Z,100895.22
2023-03-03T02:05:38.449Z,100879.63
2023-03-03T02:08:12.097Z,100873.81
2023-03-03T02:10:43.502Z,100872.13
2023-03-03T02:13:15.298Z,100878.84
2023-03-03T02:15:46.501Z,100879.81
2023-03-03T02:18:19.840Z,100876.81
2023-03-03T02:21:01.011Z,100872.59
2023-03-03T02:23:48.878Z,100860.31
2023-03-03T02:26:31.387Z,100856.06
2023-03-03T02:29:07.395Z,100860.84
2023-03-03T02:31:40.100Z,100848.34
2023-03-03T02:34:11.455Z,100845.56
2023-03-03T02:36:44.843Z,100842.88
2023-03-03T02:39:23.221Z,100837.41
2023-03-03T02:42:09.649Z,100843.44
2023-03-03T02:44:46.538Z,100839.41
2023-03-03T02:47:17.968Z,100833.22
2023-03-03T02:49:49.230Z,100831.09
2023-03-03T02:52:21.663Z,100823.66
2023-03-03T02:54:53.521Z,100820.19
2023-03-03T02:57:25.572Z,100810.53
2023-03-03T02:59:57.725Z,100812.31
2023-03-03T03:02:29.741Z,100811.13
2023-03-03T03:05:02.038Z,100797.91
2023-03-03T03:07:33.907Z,100794.94
2023-03-03T03:10:07.166Z,100805.31
2023-03-03T03:12:41.370Z,100792.63
2023-03-03T03:15:15.119Z,100796.69
2023-03-03T03:17:46.655Z,100795.91
2023-03-03T03:20:19.012Z,100790.31
2023-03-03T03:22:50.761Z,100784.97
2023-03-03T03:25:22.493Z,100780.28
2023-03-03T03:27:54.262Z,100776.31
2023-03-03T03:30:25.666Z,100767.53
2023-03-03T03:32:57.424Z,100772.91
2023-03-03T03:35:28.775Z,100772.59
2023-03-03T03:38:00.377Z,100765.53
2023-03-03T03:40:32.086Z,100764.31
2023-03-03T03:43:03.706Z,100764.03
2023-03-03T03:45:35.689Z,100755.25
2023-03-03T03:48:07.932Z,100763.28
2023-03-03T03:50:39.421Z,100773.44
2023-03-03T03:53:11.388Z,100757.41
2023-03-03T03:55:42.676Z,100748.84
2023-03-03T03:58:18.989Z,100748.97
2023-03-03T04:00:57.832Z,100751.53
2023-03-03T04:03:29.237Z,100744.19
2023-03-03T04:06:04.043Z,100747.69
2023-03-03T04:08:35.231Z,100747.88
2023-03-03T04:11:07.201Z,100746.06
2023-03-03T04:13:38.328Z,100750.84
2023-03-03T04:16:12.241Z,100753.97
2023-03-03T04:18:46.644Z,100742.81
2023-03-03T04:21:20.938Z,100743.94
2023-03-03T04:23:54.817Z,100751.25
2023-03-03T04:26:26.469Z,100739.47
2023-03-03T04:28:57.889Z,100738.19
2023-03-03T04:31:28.697Z,100733.97
2023-03-03T04:34:00.317Z,100729.88
2023-03-03T04:36:32.681Z,100713.78
2023-03-03T04:39:04.968Z,100718.47
2023-03-03T04:41:36.809Z,100721.84
2023-03-03T04:44:08.752Z,100723.66
2023-03-03T04:46:40.292Z,100723.75
2023-03-03T04:49:12.618Z,100722.09
2023-03-03T04:51:46.366Z,100711.84
2023-03-03T04:54:17.755Z,100718.44
2023-03-03T04:56:48.427Z,100721.19
2023-03-03T04:59:19.917Z,100713.38
2023-03-03T05:01:52.807Z,100709.97
2023-03-03T05:04:24.349Z,100728.50
2023-03-03T05:06:54.839Z,100713.31
2023-03-03T05:09:26.577Z,100715.03
2023-03-03T05:11:58.310Z,100717.72
2023-03-03T05:14:29.063Z,100711.03
2023-03-03T05:17:00.228Z,100703.59
2023-03-03T05:19:36.484Z,100707.78
2023-03-03T05:22:08.480Z,100706.44
2023-03-03T05:24:40.248Z,100717.06
2023-03-03T05:27:13.503Z,100715.16
2023-03-03T05:29:44.890Z,100723.63
2023-03-03T05:32:16.262Z,100718.16
2023-03-03T05:34:46.949Z,100710.97
2023-03-03T05:37:18.636Z,100707.66
2023-03-03T05:39:50.248Z,100703.88
2023-03-03T05:42:21.660Z,100701.78
2023-03-03T05:44:53.301Z,100702.97
2023-03-03T05:47:24.395Z,100701.47
2023-03-03T05:49:55.765Z,100701.25
2023-03-03T05:52:27.126Z,100710.56
2023-03-03T05:54:58.313Z,100698.59
2023-03-03T05:57:29.579Z,100699.47
2023-03-03T06:00:00.654Z,100693.06
2023-03-03T06:02:33.801Z,100701.97
2023-03-03T06:05:04.455Z,100696.19
2023-03-03T06:07:35.465Z,100696.72
2023-03-03T06:10:06.720Z,100699.41
2023-03-03T06:12:40.851Z,100700.53
2023-03-03T06:15:13.326Z,100704.28
2023-03-03T06:17:44.780Z,100697.34
2023-03-03T06:20:16.486Z,100706.53
2023-03-03T06:22:47.370Z,100703.00
2023-03-03T06:25:19.051Z,100706.22
2023-03-03T06:27:50.763Z,100699.63
2023-03-03T06:30:22.684Z,100716.44
2023-03-03T06:32:54.128Z,100717.34
2023-03-03T06:35:25.205Z,100718.47
2023-03-03T06:37:56.538Z,100721.84
2023-03-03T06:40:28.580Z,100715.38
2023-03-03T06:43:00.097Z,100714.06
2023-03-03T06:45:31.559Z,100723.19
2023-03-03T06:56:30.232Z,100727.97
2023-03-03T06:59:04.337Z,100725.72
2023-03-03T07:01:39.103Z,100733.41
2023-03-03T07:04:27.186Z,100728.28
2023-03-03T07:07:00.565Z,100733.81
2023-03-03T07:09:32.432Z,100734.97
2023-03-03T07:12:11.618Z,100729.94
2023-03-03T07:14:53.147Z,100732.84
2023-03-03T07:17:26.838Z,100731.97
2023-03-03T07:19:58.456Z,100736.41
2023-03-03T07:22:31.807Z,100737.13
2023-03-03T07:25:04.051Z,100734.31
2023-03-03T07:27:36.026Z,100739.19
2023-03-03T07:30:29.936Z,100746.38
2023-03-03T07:33:01.959Z,100734.94
2023-03-03T07:35:46.568Z,100748.91
2023-03-03T07:38:20.773Z,100751.19
2023-03-03T07:40:55.625Z,100752.66
2023-03-03T07:43:37.588Z,100762.56
2023-03-03T07:46:30.839Z,100763.91
2023-03-03T07:49:03.063Z,100768.28
2023-03-03T07:51:43.845Z,100776.22
2023-03-03T07:54:39.207Z,100769.53
2023-03-03T07:57:28.725Z,100778.72
2023-03-03T08:00:18.173Z,100773.19
2023-03-03T08:03:09.604Z,100774.50
2023-03-03T08:05:44.533Z,100780.50
2023-03-03T08:08:22.274Z,100775.22
2023-03-03T08:10:56.766Z,100777.22
2023-03-03T08:13:48.241Z,100788.47
2023-03-03T08:16:19.278Z,100783.91
2023-03-03T08:18:55.132Z,100786.75
2023-03-03T08:21:29.195Z,100790.41
2023-03-03T08:24:00.891Z,100785.97
2023-03-03T08:26:32.812Z,100782.91
2023-03-03T08:29:03.166Z,100794.06
2023-03-03T08:31:41.342Z,100782.91
2023-03-03T08:34:13.479Z,100791.81
2023-03-03T08:36:44.278Z,100789.94
2023-03-03T08:39:15.818Z,100792.38
2023-03-03T08:41:49.125Z,100782.38
2023-03-03T08:44:22.173Z,100792.69
2023-03-03T08:46:53.971Z,100788.13
2023-03-03T08:49:24.720Z,100793.72
2023-03-03T08:51:57.071Z,100797.44
2023-03-03T08:54:28.561Z,100799.59
2023-03-03T08:56:59.215Z,100801.97
2023-03-03T08:59:30.468Z,100807.88
2023-03-03T09:02:01.817Z,100812.31
2023-03-03T09:04:33.496Z,100813.13
2023-03-03T09:07:04.842Z,100810.97
2023-03-03T09:09:35.789Z,100814.59
2023-03-03T09:12:40.283Z,100810.91
2023-03-03T09:15:27.246Z,100817.34
2023-03-03T09:18:36.334Z,100820.91
2023-03-03T09:21:24.992Z,100819.41
2023-03-03T09:24:03.619Z,100824.81
2023-03-03T09:26:48.567Z,100826.88
2023-03-03T09:29:33.286Z,100825.88
2023-03-03T09:32:39.260Z,100818.94
2023-03-03T09:35:30.238Z,100832.09
2023-03-03T09:38:01.591Z,100823.66
2023-03-03T09:40:55.206Z,100823.28
2023-03-03T09:44:03.100Z,100830.03
2023-03-03T09:46:55.215Z,100835.16
2023-03-03T09:49:37.862Z,100831.03
2023-03-03T09:52:38.672Z,100825.25
2023-03-03T09:55:24.378Z,100837.66
2023-03-03T09:58:11.195Z,100838.16
2023-03-03T10:01:10.171Z,100842.72
2023-03-03T10:04:24.071Z,100848.88
2023-03-03T10:07:17.625Z,100840.69
2023-03-03T10:10:00.196Z,100847.94
2023-03-03T10:13:17.961Z,100845.44
2023-03-03T10:16:18.218Z,100856.28
2023-03-03T10:19:05.665Z,100856.13
2023-03-03T10:22:05.387Z,100855.44
2023-03-03T10:24:55.924Z,100851.25
2023-03-03T10:27:37.896Z,100851.50
2023-03-03T10:30:15.442Z,100844.47
2023-03-03T10:33:00.744Z,100853.75
2023-03-03T10:36:04.725Z,100857.53
2023-03-03T10:39:02.328Z,100857.13
2023-03-03T10:41:36.440Z,100850.34
2023-03-03T10:44:27.227Z,100850.19
2023-03-03T10:47:03.551Z,100839.03
2023-03-03T10:49:56.566Z,100844.41
2023-03-03T10:52:51.386Z,100838.38
2023-03-03T10:55:41.111Z,100838.81
2023-03-03T10:58:14.853Z,100838.38
2023-03-03T11:01:12.447Z,100838.25
2023-03-03T11:04:16.708Z,100842.59
2023-03-03T11:06:57.825Z,100840.41
2023-03-03T11:09:59.915Z,100831.97
2023-03-03T11:12:55.049Z,100833.13
2023-03-03T11:16:00.838Z,100832.09
2023-03-03T11:18:34.826Z,100833.16
2023-03-03T11:21:22.401Z,100832.06
2023-03-03T11:24:04.431Z,100829.44
2023-03-03T11:26:55.121Z,100834.53
2023-03-03T11:29:31.424Z,100822.81
2023-03-03T11:32:30.215Z,100824.03
2023-03-03T11:35:28.403Z,100819.72
2023-03-03T11:38:04.648Z,100822.59
2023-03-03T11:40:56.554Z,100814.66
2023-03-03T11:43:47.024Z,100814.00
2023-03-03T11:46:28.210Z,100818.38
2023-03-03T11:49:06.709Z,100815.13
2023-03-03T11:51:43.802Z,100817.72
2023-03-03T11:54:39.713Z,100817.94
2023-03-03T11:57:25.347Z,100816.81
2023-03-03T12:00:10.996Z,100815.78
2023-03-03T12:03:15.686Z,100816.41
2023-03-03T12:05:56.036Z,100825.78
2023-03-03T12:08:56.302Z,100816.56
2023-03-03T12:11:34.083Z,100823.00
2023-03-03T12:14:18.584Z,100807.19
2023-03-03T12:16:59.075Z,100811.19
2023-03-03T12:19:49.932Z,100809.94
2023-03-03T12:22:39.743Z,100813.16
2023-03-03T12:25:25.841Z,100811.50
2023-03-03T12:28:20.339Z,100817.06
2023-03-03T12:31:03.961Z,100799.81
2023-03-03T12:34:11.852Z,100805.94
2023-03-03T12:37:16.516Z,100813.25
2023-03-03T12:40:02.630Z,100804.59
2023-03-03T12:43:01.148Z,100808.16
2023-03-03T12:45:57.677Z,100796.16
2023-03-03T12:48:32.506Z,100801.88
2023-03-03T12:51:40.726Z,100806.84
2023-03-03T12:54:37.029Z,100808.25
2023-03-03T12:57:15.135Z,100803.41
2023-03-03T13:00:14.710Z,100794.97
2023-03-03T13:02:52.717Z,100805.34
2023-03-03T13:06:00.705Z,100789.91
2023-03-03T13:08:47.709Z,100774.94
2023-03-03T13:11:30.058Z,100780.66
2023-03-03T13:14:07.111Z,100780.41
2023-03-03T13:17:33.465Z,100779.56
2023-03-03T13:20:27.200Z,100779.00
2023-03-03T13:23:02.205Z,100767.75
2023-03-03T13:26:03.332Z,100759.34
2023-03-03T13:28:41.268Z,100758.22
2023-03-03T13:31:24.038Z,100751.56
2023-03-03T13:34:00.638Z,100749.88
2023-03-03T13:36:45.398Z,100750.22
2023-03-03T13:39:30.110Z,100741.97
2023-03-03T13:42:26.943Z,100739.56
2023-03-03T13:44:59.417Z,100735.84
2023-03-03T13:47:55.773Z,100739.59
2023-03-03T13:50:38.534Z,100742.09
2023-03-03T13:53:35.949Z,100745.91
2023-03-03T13:56:25.099Z,100746.72
2023-03-03T13:59:17.467Z,100751.91
2023-03-03T14:01:48.589Z,100741.09
2023-03-03T14:04:31.801Z,100741.25
2023-03-03T14:07:12.127Z,100741.56
2023-03-03T14:10:01.497Z,100747.88
2023-03-03T14:13:01.680Z,100741.66
2023-03-03T14:15:58.098Z,100744.81
2023-03-03T14:18:44.010Z,100742.06
2023-03-03T14:21:53.403Z,100738.72
2023-03-03T14:24:28.002Z,100737.63
2023-03-03T14:27:01.216Z,100739.28
2023-03-03T14:29:34.892Z,100743.34
2023-03-03T14:32:43.165Z,100737.16
2023-03-03T14:35:23.119Z,100742.88
2023-03-03T14:37:54.318Z,100740.91
2023-03-03T14:40:34.418Z,100732.69
2023-03-03T14:43:10.914Z,100727.03
2023-03-03T14:45:45.714Z,100731.59
2023-03-03T14:48:20.685Z,100736.22
2023-03-03T14:51:23.009Z,100731.78
2023-03-03T14:53:53.875Z,100722.81
2023-03-03T14:56:26.434Z,100725.81
2023-03-03T14:59:22.899Z,100717.66
2023-03-03T15:02:03.100Z,100717.66
2023-03-03T15:04:34.739Z,100724.47
2023-03-03T15:07:22.462Z,100715.78
2023-03-03T15:09:54.509Z,100710.34
2023-03-03T15:12:28.606Z,100706.28
2023-03-03T15:15:10.144Z,100701.44
2023-03-03T15:18:20.669Z,100699.00
2023-03-03T15:21:08.173Z,100705.47
2023-03-03T15:24:09.795Z,100705.25
2023-03-03T15:26:47.196Z,100709.59
2023-03-03T15:29:56.950Z,100718.34
2023-03-03T15:32:42.261Z,100718.38
2023-03-03T15:35:58.617Z,100719.44
2023-03-03T15:38:46.000Z,100721.63
2023-03-03T15:41:26.649Z,100724.56
2023-03-03T15:44:16.440Z,100725.13
2023-03-03T15:46:59.927Z,100725.44
2023-03-03T15:50:08.217Z,100719.44
2023-03-03T15:53:01.933Z,100722.41
2023-03-03T15:55:36.634Z,100725.97
2023-03-03T15:58:39.037Z,100723.78
2023-03-03T16:01:16.791Z,100716.47
2023-03-03T16:04:00.036Z,100722.44
2023-03-03T16:06:31.544Z,100722.19
2023-03-03T16:09:14.561Z,100717.28
2023-03-03T16:11:55.001Z,100716.75
2023-03-03T16:14:43.062Z,100708.06
2023-03-03T16:17:39.008Z,100705.84
2023-03-03T16:20:17.217Z,100710.19
2023-03-03T16:23:25.105Z,100720.53
2023-03-03T16:26:11.673Z,100713.78
2023-03-03T16:29:13.324Z,100721.06
2023-03-03T16:31:57.329Z,100719.19
2023-03-03T16:34:34.972Z,100723.25
2023-03-03T16:37:29.907Z,100724.34
2023-03-03T16:40:35.857Z,100723.84
2023-03-03T16:43:38.115Z,100729.19
2023-03-03T16:46:32.321Z,100728.16
2023-03-03T16:49:07.749Z,100736.22
2023-03-03T16:51:45.278Z,100724.63
2023-03-03T16:54:28.742Z,100727.31
2023-03-03T16:57:34.970Z,100725.13
2023-03-03T17:00:16.874Z,100736.56
2023-03-03T17:03:06.262Z,100732.47
2023-03-03T17:05:59.331Z,100729.25
2023-03-03T17:08:36.388Z,100746.59
2023-03-03T17:11:32.087Z,100743.34
2023-03-03T17:14:26.765Z,100736.84
2023-03-03T17:17:01.044Z,100736.81
2023-03-03T17:19:53.999Z,100743.81
2023-03-03T17:22:47.875Z,100746.59
2023-03-03T17:25:25.205Z,100745.75
2023-03-03T17:28:07.477Z,100741.41
2023-03-03T17:30:50.877Z,100741.41
2023-03-03T17:33:36.877Z,100737.63
2023-03-03T17:36:24.208Z,100740.31
2023-03-03T17:39:09.674Z,100747.06
2023-03-03T17:41:54.103Z,100741.13
2023-03-03T17:44:36.423Z,100742.22
2023-03-03T17:47:11.639Z,100743.84
2023-03-03T17:50:07.978Z,100744.34
2023-03-03T17:53:00.696Z,100750.03
2023-03-03T17:55:37.947Z,100760.09
2023-03-03T17:58:21.369Z,100769.03
2023-03-03T18:01:03.434Z,100772.56
2023-03-03T18:03:54.426Z,100763.31
2023-03-03T18:07:04.587Z,100761.97
2023-03-03T18:09:51.206Z,100771.75
2023-03-03T18:12:45.125Z,100780.66
2023-03-03T18:15:31.765Z,100787.72
2023-03-03T18:18:27.615Z,100787.47
2023-03-03T18:21:26.045Z,100794.50
2023-03-03T18:24:16.796Z,100803.22
2023-03-03T18:26:48.055Z,100794.25
2023-03-03T18:29:19.419Z,100804.91
2023-03-03T18:31:59.896Z,100797.94
2023-03-03T18:34:39.849Z,100796.00
2023-03-03T18:37:32.287Z,100794.94
2023-03-03T18:40:07.459Z,100798.19
2023-03-03T18:42:46.212Z,100790.56
2023-03-03T18:45:24.623Z,100803.63
2023-03-03T18:48:12.055Z,100798.72
2023-03-03T18:50:50.689Z,100796.50
2023-03-03T18:53:32.594Z,100800.56
2023-03-03T18:56:05.982Z,100799.44
2023-03-03T18:58:44.384Z,100794.03
2023-03-03T19:01:34.919Z,100793.41
2023-03-03T19:04:12.151Z,100791.69
2023-03-03T19:06:46.407Z,100798.69
2023-03-03T19:09:54.021Z,100797.41
2023-03-03T19:12:54.572Z,100802.25
2023-03-03T19:15:35.270Z,100803.16
2023-03-03T19:18:18.084Z,100812.66
2023-03-03T19:21:02.353Z,100813.81
2023-03-03T19:23:52.913Z,100813.41
2023-03-03T19:26:32.870Z,100817.53
2023-03-03T19:29:15.841Z,100817.25
2023-03-03T19:32:00.178Z,100828.63
2023-03-03T19:34:49.253Z,100820.69
2023-03-03T19:37:50.960Z,100814.25
2023-03-03T19:40:45.155Z,100824.25
2023-03-03T19:43:45.283Z,100825.72
2023-03-03T19:46:43.886Z,100822.53
2023-03-03T19:49:36.316Z,100816.72
2023-03-03T19:52:30.360Z,100820.56
2023-03-03T19:55:22.317Z,100819.59
2023-03-03T19:58:07.486Z,100802.28
2023-03-03T20:00:46.704Z,100820.44
2023-03-03T20:03:38.649Z,100814.53
2023-03-03T20:06:52.083Z,100815.84
2023-03-03T20:09:38.444Z,100820.31
2023-03-03T20:12:54.819Z,100814.56
2023-03-03T20:15:40.449Z,100812.28
2023-03-03T20:18:17.836Z,100810.66
2023-03-03T20:20:57.733Z,100813.81
2023-03-03T20:24:02.018Z,100818.72
2023-03-03T20:26:45.534Z,100812.50
2023-03-03T20:29:48.357Z,100808.56
2023-03-03T20:32:42.138Z,100816.53
2023-03-03T20:35:24.746Z,100816.72
2023-03-03T20:38:05.045Z,100807.50
2023-03-03T20:40:46.193Z,100816.53
2023-03-03T20:43:40.061Z,100815.50
2023-03-03T20:46:32.674Z,100816.59
2023-03-03T20:49:13.667Z,100817.56
2023-03-03T20:52:06.471Z,100806.59
2023-03-03T20:55:00.667Z,100812.91
2023-03-03T20:57:48.449Z,100809.84
2023-03-03T21:00:29.406Z,100805.97
2023-03-03T21:03:09.048Z,100800.16
2023-03-03T21:06:10.486Z,100800.88
2023-03-03T21:08:57.810Z,100795.41
2023-03-03T21:11:48.950Z,100796.03
2023-03-03T21:14:22.866Z,100800.75
2023-03-03T21:16:58.099Z,100804.53
2023-03-03T21:19:32.580Z,100808.84
2023-03-03T21:22:04.376Z,100809.84
2023-03-03T21:25:02.684Z,100806.53
2023-03-03T21:27:36.534Z,100811.13
2023-03-03T21:30:19.079Z,100807.19
2023-03-03T21:32:52.978Z,100812.13
2023-03-03T21:35:24.952Z,100817.53
2023-03-03T21:37:59.905Z,100816.63
2023-03-03T21:40:32.568Z,100816.03
2023-03-03T21:43:03.779Z,100814.16
2023-03-03T21:45:35.338Z,100820.38
2023-03-03T21:48:06.520Z,100822.38
2023-03-03T21:50:38.177Z,100819.56
2023-03-03T21:53:08.568Z,100812.84
2023-03-03T21:55:39.738Z,100815.50
2023-03-03T21:58:11.017Z,100807.72
2023-03-03T22:00:44.480Z,100805.19
2023-03-03T22:03:17.093Z,100798.09
2023-03-03T22:05:50.567Z,100799.16
2023-03-03T22:08:24.913Z,100804.03
2023-03-03T22:10:57.690Z,100802.31
2023-03-03T22:13:29.307Z,100805.03
2023-03-03T22:16:00.714Z,100797.47
2023-03-03T22:18:32.410Z,100796.69
2023-03-03T22:21:03.873Z,100790.66
2023-03-03T22:23:35.482Z,100786.78
2023-03-03T22:26:07.012Z,100784.88
2023-03-03T22:28:38.549Z,100786.53
2023-03-03T22:31:09.744Z,100785.38
2023-03-03T22:33:41.277Z,100778.13
2023-03-03T22:36:13.107Z,100776.44
2023-03-03T22:38:44.805Z,100765.81
2023-03-03T22:41:16.920Z,100772.53
2023-03-03T22:43:49.687Z,100768.44
2023-03-03T22:46:20.989Z,100764.28
2023-03-03T22:48:51.603Z,100764.25
2023-03-03T22:51:25.607Z,100778.66
2023-03-03T22:53:57.750Z,100763.09
2023-03-03T22:56:28.606Z,100771.25
2023-03-03T22:59:00.279Z,100754.56
2023-03-03T23:01:32.661Z,100762.47
2023-03-03T23:04:04.052Z,100769.59
2023-03-03T23:06:35.458Z,100761.97
2023-03-03T23:09:07.240Z,100760.44
2023-03-03T23:11:38.970Z,100754.28
2023-03-03T23:14:10.288Z,100756.78
2023-03-03T23:16:41.848Z,100755.34
2023-03-03T23:19:13.630Z,100745.06
2023-03-03T23:21:45.041Z,100745.00
2023-03-03T23:24:15.850Z,100744.34
2023-03-03T23:26:47.141Z,100738.69
2023-03-03T23:29:17.709Z,100740.78
2023-03-03T23:31:49.124Z,100741.59
2023-03-03T23:34:20.455Z,100733.56
2023-03-03T23:36:51.918Z,100722.50
2023-03-03T23:39:22.306Z,100728.28
2023-03-03T23:41:53.855Z,100725.38
2023-03-03T23:44:25.508Z,100721.91
2023-03-03T23:46:57.295Z,100722.13
2023-03-03T23:49:28.590Z,100713.63
2023-03-03T23:52:00.454Z,100713.94
2023-03-03T23:54:32.189Z,100709.25
2023-03-03T23:57:03.705Z,100708.88
2023-03-03T23:59:35.245Z,100709.44
